createdAt,value
2023-01-03T00:00:39.938Z,56.47
2023-01-03T00:03:27.477Z,56.60
2023-01-03T00:06:18.441Z,55.72
2023-01-03T00:09:06.939Z,63.53
2023-01-03T00:12:15.414Z,62.30
2023-01-03T00:15:01.456Z,60.22
2023-01-03T00:17:47.342Z,59.85
2023-01-03T00:20:34.679Z,62.38
2023-01-03T00:23:20.584Z,58.33
2023-01-03T00:26:15.629Z,57.33
2023-01-03T00:29:01.210Z,58.92
2023-01-03T00:31:46.687Z,57.90
2023-01-03T00:34:33.531Z,56.95
2023-01-03T00:37:19.118Z,62.50
2023-01-03T00:40:05.212Z,64.85
2023-01-03T00:43:09.264Z,55.88
2023-01-03T00:45:54.850Z,60.97
2023-01-03T00:48:40.805Z,62.53
2023-01-03T00:51:28.724Z,65.13
2023-01-03T00:54:15.675Z,71.63
2023-01-03T00:57:01.502Z,60.33
2023-01-03T00:59:47.071Z,60.22
2023-01-03T01:02:32.817Z,59.92
2023-01-03T01:05:18.603Z,60.25
2023-01-03T01:08:04.402Z,64.25
2023-01-03T01:11:01.992Z,60.25
2023-01-03T01:13:48.560Z,60.45
2023-01-03T01:16:34.355Z,63.47
2023-01-03T01:19:23.173Z,55.85
2023-01-03T01:22:10.575Z,58.22
2023-01-03T01:24:56.072Z,58.47
2023-01-03T01:27:41.642Z,65.70
2023-01-03T01:30:27.418Z,56.75
2023-01-03T01:33:12.908Z,62.00
2023-01-03T01:35:59.084Z,58.20
2023-01-03T01:38:45.958Z,61.53
2023-01-03T01:41:53.142Z,58.58
2023-01-03T01:44:44.928Z,57.65
2023-01-03T01:47:46.607Z,60.88
2023-01-03T01:50:40.144Z,55.97
2023-01-03T01:53:29.695Z,52.75
2023-01-03T01:56:23.545Z,60.00
2023-01-03T01:59:11.554Z,57.13
2023-01-03T02:01:57.517Z,58.35
2023-01-03T02:04:43.360Z,53.97
2023-01-03T02:07:29.184Z,61.03
2023-01-03T02:10:15.257Z,55.78
2023-01-03T02:13:39.002Z,56.80
2023-01-03T02:16:29.596Z,56.03
2023-01-03T02:19:46.512Z,61.55
2023-01-03T02:22:50.575Z,55.55
2023-01-03T02:26:02.135Z,59.85
2023-01-03T02:29:03.044Z,59.75
2023-01-03T02:31:48.312Z,65.47
2023-01-03T02:34:48.048Z,57.03
2023-01-03T02:38:13.350Z,56.28
2023-01-03T02:41:16.999Z,56.13
2023-01-03T02:44:18.189Z,58.35
2023-01-03T02:47:11.959Z,56.70
2023-01-03T02:49:59.937Z,53.13
2023-01-03T02:52:48.711Z,59.35
2023-01-03T02:55:37.114Z,57.35
2023-01-03T02:58:26.866Z,59.58
2023-01-03T03:01:13.052Z,52.65
2023-01-03T03:04:01.380Z,67.18
2023-01-03T03:07:04.549Z,76.13
2023-01-03T03:10:08.850Z,79.50
2023-01-03T03:13:14.533Z,89.88
2023-01-03T03:16:09.374Z,84.10
2023-01-03T03:19:00.020Z,79.07
2023-01-03T03:22:04.752Z,76.18
2023-01-03T03:24:50.386Z,76.93
2023-01-03T03:27:59.551Z,73.57
2023-01-03T03:30:47.535Z,73.28
2023-01-03T03:33:55.493Z,73.57
2023-01-03T03:36:56.064Z,77.32
2023-01-03T03:40:00.130Z,77.72
2023-01-03T03:43:08.618Z,72.38
2023-01-03T03:46:11.072Z,74.68
2023-01-03T03:49:39.036Z,82.05
2023-01-03T03:52:29.075Z,86.20
2023-01-03T03:55:35.913Z,96.18
2023-01-03T03:58:32.875Z,84.43
2023-01-03T04:01:22.256Z,101.35
2023-01-03T04:04:13.770Z,98.30
2023-01-03T04:06:59.785Z,103.13
2023-01-03T04:09:45.596Z,105.00
2023-01-03T04:12:31.075Z,97.50
2023-01-03T04:15:17.856Z,103.63
2023-01-03T04:18:03.782Z,97.68
2023-01-03T04:20:49.355Z,103.85
2023-01-03T04:23:34.939Z,99.95
2023-01-03T04:26:20.585Z,97.93
2023-01-03T04:29:06.459Z,101.45
2023-01-03T04:31:51.846Z,86.78
2023-01-03T04:34:37.345Z,97.43
2023-01-03T04:37:23.132Z,100.78
2023-01-03T04:40:09.591Z,101.70
2023-01-03T04:43:13.499Z,95.03
2023-01-03T04:45:59.230Z,97.90
2023-01-03T04:48:45.030Z,110.30
2023-01-03T04:51:31.089Z,102.18
2023-01-03T04:54:16.527Z,107.35
2023-01-03T04:57:02.146Z,117.53
2023-01-03T04:59:47.660Z,112.07
2023-01-03T05:02:33.198Z,109.30
2023-01-03T05:05:18.826Z,112.05
2023-01-03T05:08:05.857Z,101.25
2023-01-03T05:10:53.465Z,109.28
2023-01-03T05:13:39.115Z,115.82
2023-01-03T05:16:24.768Z,113.35
2023-01-03T05:19:10.327Z,106.72
2023-01-03T05:22:14.477Z,111.82
2023-01-03T05:25:18.893Z,111.88
2023-01-03T05:28:04.616Z,102.88
2023-01-03T05:30:50.387Z,116.93
2023-01-03T05:33:39.177Z,108.80
2023-01-03T05:36:24.903Z,113.18
2023-01-03T05:39:10.605Z,109.07
2023-01-03T05:42:02.321Z,110.82
2023-01-03T05:44:49.886Z,105.10
2023-01-03T05:47:35.410Z,98.13
2023-01-03T05:50:21.119Z,99.30
2023-01-03T05:53:06.672Z,90.82
2023-01-03T05:55:52.287Z,94.53
2023-01-03T05:58:37.951Z,95.18
2023-01-03T06:01:26.412Z,90.43
2023-01-03T06:04:11.995Z,95.43
2023-01-03T06:06:57.660Z,101.15
2023-01-03T06:09:43.149Z,99.75
2023-01-03T06:12:29.648Z,87.45
2023-01-03T06:15:15.353Z,99.40
2023-01-03T06:18:02.682Z,92.15
2023-01-03T06:20:48.549Z,84.72
2023-01-03T06:23:34.083Z,98.32
2023-01-03T06:26:22.518Z,103.13
2023-01-03T06:29:08.693Z,105.45
2023-01-03T06:31:54.016Z,115.85
2023-01-03T06:34:39.918Z,103.05
2023-01-03T06:37:25.733Z,110.20
2023-01-03T06:40:11.507Z,109.43
2023-01-03T06:42:57.862Z,121.15
2023-01-03T06:46:02.894Z,117.43
2023-01-03T06:49:07.491Z,131.43
2023-01-03T06:52:11.919Z,134.50
2023-01-03T06:54:57.649Z,135.85
2023-01-03T06:57:43.107Z,143.75
2023-01-03T07:00:28.890Z,160.30
2023-01-03T07:03:14.365Z,147.10
2023-01-03T07:06:00.195Z,137.70
2023-01-03T07:08:48.380Z,140.07
2023-01-03T07:11:34.529Z,136.57
2023-01-03T07:14:20.101Z,135.77
2023-01-03T07:17:05.743Z,119.95
2023-01-03T07:19:51.238Z,113.32
2023-01-03T07:22:36.806Z,122.90
2023-01-03T07:25:22.325Z,109.15
2023-01-03T07:28:12.343Z,126.78
2023-01-03T07:31:03.181Z,117.85
2023-01-03T07:33:49.150Z,116.72
2023-01-03T07:36:34.796Z,126.43
2023-01-03T07:39:20.298Z,126.90
2023-01-03T07:42:24.457Z,126.13
2023-01-03T07:45:10.423Z,113.38
2023-01-03T07:47:57.196Z,116.63
2023-01-03T07:50:42.821Z,113.85
2023-01-03T07:53:29.001Z,119.53
2023-01-03T07:56:16.575Z,124.00
2023-01-03T07:59:02.666Z,110.97
2023-01-03T08:01:48.536Z,109.70
2023-01-03T08:04:34.963Z,119.03
2023-01-03T08:07:20.655Z,136.60
2023-01-03T08:10:36.139Z,119.10
2023-01-03T08:13:22.295Z,127.05
2023-01-03T08:16:11.180Z,124.25
2023-01-03T08:19:19.257Z,144.10
2023-01-03T08:22:04.808Z,144.93
2023-01-03T08:24:50.481Z,138.18
2023-01-03T08:27:36.079Z,129.82
2023-01-03T08:30:21.815Z,128.35
2023-01-03T08:33:10.284Z,139.73
2023-01-03T08:36:03.930Z,127.78
2023-01-03T08:41:43.827Z,130.40
2023-01-03T08:44:34.300Z,126.00
2023-01-03T08:47:20.248Z,116.35
2023-01-03T08:50:08.128Z,124.50
2023-01-03T08:52:54.061Z,128.60
2023-01-03T08:55:39.756Z,131.10
2023-01-03T08:58:26.916Z,133.43
2023-01-03T09:01:12.594Z,132.02
2023-01-03T09:03:58.262Z,131.57
2023-01-03T09:06:43.952Z,124.75
2023-01-03T09:09:29.683Z,127.13
2023-01-03T09:12:16.392Z,123.85
2023-01-03T09:15:02.313Z,142.40
2023-01-03T09:17:49.356Z,126.20
2023-01-03T09:20:35.202Z,121.53
2023-01-03T09:23:21.253Z,122.20
2023-01-03T09:26:06.834Z,121.32
2023-01-03T09:28:52.438Z,116.38
2023-01-03T09:31:40.226Z,105.18
2023-01-03T09:34:26.386Z,111.57
2023-01-03T09:37:12.046Z,101.32
2023-01-03T09:39:58.328Z,100.55
2023-01-03T09:43:02.934Z,85.75
2023-01-03T09:45:56.660Z,97.20
2023-01-03T09:48:42.143Z,83.68
2023-01-03T09:51:54.204Z,90.10
2023-01-03T09:55:00.918Z,84.78
2023-01-03T09:58:05.096Z,79.38
2023-01-03T10:01:12.474Z,78.35
2023-01-03T10:04:06.486Z,80.43
2023-01-03T10:07:29.544Z,81.97
2023-01-03T10:10:26.998Z,84.95
2023-01-03T10:13:45.227Z,94.03
2023-01-03T10:16:57.070Z,80.90
2023-01-03T10:19:53.799Z,83.78
2023-01-03T10:22:40.905Z,84.63
2023-01-03T10:25:30.528Z,82.28
2023-01-03T10:28:21.376Z,85.22
2023-01-03T10:31:17.725Z,80.75
2023-01-03T10:34:07.026Z,85.25
2023-01-03T10:36:52.878Z,85.57
2023-01-03T10:39:40.549Z,76.60
2023-01-03T10:42:33.015Z,85.63
2023-01-03T10:45:21.199Z,77.53
2023-01-03T10:48:14.182Z,89.50
2023-01-03T10:50:59.848Z,86.38
2023-01-03T10:53:45.651Z,96.10
2023-01-03T10:56:32.297Z,87.40
2023-01-03T10:59:22.218Z,91.80
2023-01-03T11:02:15.352Z,91.13
2023-01-03T11:05:17.449Z,86.43
2023-01-03T11:08:06.453Z,85.03
2023-01-03T11:10:57.921Z,83.72
2023-01-03T11:13:43.431Z,97.22
2023-01-03T11:16:32.484Z,88.88
2023-01-03T11:19:20.732Z,92.30
2023-01-03T11:22:48.287Z,92.30
2023-01-03T11:25:59.651Z,93.40
2023-01-03T11:29:23.444Z,92.47
2023-01-03T11:32:35.508Z,85.75
2023-01-03T11:35:45.361Z,89.45
2023-01-03T11:38:51.702Z,95.22
2023-01-03T11:41:46.609Z,97.68
2023-01-03T11:44:47.636Z,93.18
2023-01-03T11:47:59.485Z,101.30
2023-01-03T11:50:56.339Z,90.65
2023-01-03T11:53:52.601Z,89.85
2023-01-03T11:56:45.152Z,89.20
2023-01-03T11:59:45.627Z,85.10
2023-01-03T12:02:41.514Z,83.78
2023-01-03T12:05:51.426Z,82.55
2023-01-03T12:08:57.677Z,89.28
2023-01-03T12:12:09.259Z,101.70
2023-01-03T12:15:00.978Z,98.25
2023-01-03T12:18:28.511Z,97.18
2023-01-03T12:21:31.379Z,91.00
2023-01-03T12:24:28.626Z,98.95
2023-01-03T12:27:23.660Z,102.97
2023-01-03T12:30:31.265Z,87.13
2023-01-03T12:33:35.899Z,80.68
2023-01-03T12:36:29.360Z,81.53
2023-01-03T12:39:35.125Z,84.13
2023-01-03T12:42:54.156Z,91.15
2023-01-03T12:46:03.481Z,88.57
2023-01-03T12:49:07.048Z,82.65
2023-01-03T12:51:52.852Z,89.43
2023-01-03T12:54:45.252Z,80.20
2023-01-03T12:57:55.783Z,85.30
2023-01-03T13:00:56.243Z,84.07
2023-01-03T13:03:50.624Z,79.65
2023-01-03T13:06:46.685Z,83.88
2023-01-03T13:09:40.519Z,85.40
2023-01-03T13:12:29.957Z,84.97
2023-01-03T13:15:37.563Z,82.38
2023-01-03T13:18:23.176Z,83.20
2023-01-03T13:22:00.624Z,89.00
2023-01-03T13:24:49.415Z,85.30
2023-01-03T13:27:38.127Z,85.82
2023-01-03T13:30:33.144Z,83.07
2023-01-03T13:33:20.656Z,103.68
2023-01-03T13:36:06.292Z,91.55
2023-01-03T13:38:52.108Z,85.00
2023-01-03T13:41:39.090Z,80.95
2023-01-03T13:44:25.117Z,83.80
2023-01-03T13:47:36.189Z,86.90
2023-01-03T13:50:33.336Z,85.82
2023-01-03T13:53:18.787Z,90.60
2023-01-03T13:56:16.484Z,99.75
2023-01-03T13:59:10.837Z,88.15
2023-01-03T14:02:18.212Z,75.43
2023-01-03T14:05:22.533Z,69.78
2023-01-03T14:08:44.657Z,66.63
2023-01-03T14:11:55.171Z,74.45
2023-01-03T14:14:41.950Z,77.13
2023-01-03T14:17:34.323Z,83.20
2023-01-03T14:20:24.022Z,70.75
2023-01-03T14:23:57.270Z,85.78
2023-01-03T14:26:19.459Z,73.38
2023-01-03T14:29:09.998Z,81.78
2023-01-03T14:31:56.535Z,80.03
2023-01-03T14:34:42.859Z,81.07
2023-01-03T14:37:28.679Z,74.78
2023-01-03T14:40:19.828Z,94.53
2023-01-03T14:43:05.423Z,95.20
2023-01-03T14:45:57.077Z,87.72
2023-01-03T14:48:46.642Z,76.32
2023-01-03T14:51:34.806Z,83.10
2023-01-03T14:54:21.219Z,79.30
2023-01-03T14:57:06.843Z,83.32
2023-01-03T14:59:56.140Z,83.07
2023-01-03T15:02:42.332Z,84.75
2023-01-03T15:05:31.876Z,85.50
2023-01-03T15:08:42.300Z,85.63
2023-01-03T15:11:58.873Z,86.22
2023-01-03T15:14:47.522Z,85.80
2023-01-03T15:17:33.270Z,85.18
2023-01-03T15:20:42.125Z,90.05
2023-01-03T15:23:42.089Z,86.93
2023-01-03T15:26:40.188Z,82.75
2023-01-03T15:29:28.618Z,84.90
2023-01-03T15:32:19.545Z,90.50
2023-01-03T15:35:18.239Z,87.55
2023-01-03T15:38:27.612Z,87.00
2023-01-03T15:41:45.164Z,84.55
2023-01-03T15:44:31.407Z,86.25
2023-01-03T15:47:19.810Z,87.00
2023-01-03T15:50:06.944Z,93.78
2023-01-03T15:52:53.775Z,93.95
2023-01-03T15:55:41.339Z,93.22
2023-01-03T15:58:28.575Z,92.13
2023-01-03T16:01:14.810Z,102.82
2023-01-03T16:04:00.360Z,95.13
2023-01-03T16:06:46.040Z,90.50
2023-01-03T16:09:31.519Z,97.05
2023-01-03T16:12:30.390Z,94.22
2023-01-03T16:15:22.205Z,99.88
2023-01-03T16:18:13.635Z,97.05
2023-01-03T16:20:59.284Z,96.70
2023-01-03T16:23:45.058Z,92.35
2023-01-03T16:26:31.881Z,90.38
2023-01-03T16:29:17.555Z,88.82
2023-01-03T16:32:03.628Z,84.38
2023-01-03T16:34:50.659Z,88.28
2023-01-03T16:37:36.091Z,93.32
2023-01-03T16:40:22.010Z,115.53
2023-01-03T16:43:08.156Z,117.63
2023-01-03T16:45:58.877Z,114.05
2023-01-03T16:48:47.903Z,100.22
2023-01-03T16:51:35.812Z,105.70
2023-01-03T16:54:21.684Z,94.63
2023-01-03T16:57:09.602Z,102.07
2023-01-03T16:59:55.563Z,104.13
2023-01-03T17:02:41.391Z,93.70
2023-01-03T17:05:29.313Z,88.43
2023-01-03T17:08:27.342Z,85.15
2023-01-03T17:11:16.106Z,88.20
2023-01-03T17:14:03.370Z,83.47
2023-01-03T17:16:50.398Z,92.00
2023-01-03T17:20:03.379Z,89.97
2023-01-03T17:22:56.214Z,90.30
2023-01-03T17:25:43.148Z,95.53
2023-01-03T17:28:29.786Z,81.68
2023-01-03T17:31:18.303Z,87.32
2023-01-03T17:34:30.138Z,89.65
2023-01-03T17:37:18.496Z,83.45
2023-01-03T17:40:04.664Z,90.93
2023-01-03T17:42:58.219Z,95.57
2023-01-03T17:46:03.442Z,89.20
2023-01-03T17:49:07.474Z,85.53
2023-01-03T17:52:06.659Z,81.05
2023-01-03T17:54:52.476Z,85.07
2023-01-03T17:57:38.295Z,88.18
2023-01-03T18:00:27.122Z,83.93
2023-01-03T18:03:12.944Z,89.68
2023-01-03T18:06:01.223Z,89.03
2023-01-03T18:08:50.382Z,81.93
2023-01-03T18:11:36.068Z,84.38
2023-01-03T18:14:21.895Z,83.32
2023-01-03T18:17:21.065Z,87.95
2023-01-03T18:20:10.363Z,85.57
2023-01-03T18:22:56.170Z,84.82
2023-01-03T18:25:41.927Z,85.40
2023-01-03T18:28:28.438Z,86.70
2023-01-03T18:31:16.261Z,87.80
2023-01-03T18:34:04.885Z,79.47
2023-01-03T18:36:52.193Z,80.40
2023-01-03T18:39:37.991Z,84.43
2023-01-03T18:42:42.280Z,88.25
2023-01-03T18:45:27.999Z,95.65
2023-01-03T18:48:19.813Z,103.10
2023-01-03T18:51:05.488Z,95.60
2023-01-03T18:53:55.752Z,83.97
2023-01-03T18:56:43.705Z,93.38
2023-01-03T18:59:29.491Z,93.97
2023-01-03T19:02:21.596Z,86.85
2023-01-03T19:05:07.824Z,90.60
2023-01-03T19:07:53.664Z,101.30
2023-01-03T19:10:39.307Z,90.65
2023-01-03T19:13:30.951Z,88.75
2023-01-03T19:16:21.598Z,91.60
2023-01-03T19:19:08.016Z,96.88
2023-01-03T19:21:53.739Z,101.55
2023-01-03T19:24:39.871Z,99.78
2023-01-03T19:27:48.648Z,107.55
2023-01-03T19:30:39.534Z,101.53
2023-01-03T19:33:25.347Z,110.40
2023-01-03T19:36:20.478Z,106.43
2023-01-03T19:39:06.012Z,115.90
2023-01-03T19:42:13.560Z,111.60
2023-01-03T19:45:00.601Z,114.07
2023-01-03T19:47:46.100Z,109.32
2023-01-03T19:50:34.266Z,104.10
2023-01-03T19:53:19.847Z,106.22
2023-01-03T19:56:22.466Z,114.68
2023-01-03T19:59:16.383Z,128.25
2023-01-03T20:02:28.352Z,107.32
2023-01-03T20:05:16.793Z,112.65
2023-01-03T20:08:11.333Z,116.90
2023-01-03T20:10:58.378Z,109.55
2023-01-03T20:13:45.158Z,113.38
2023-01-03T20:16:30.730Z,116.03
2023-01-03T20:19:20.803Z,127.13
2023-01-03T20:22:06.555Z,104.90
2023-01-03T20:24:52.491Z,108.22
2023-01-03T20:27:44.334Z,126.35
2023-01-03T20:30:32.697Z,121.67
2023-01-03T20:33:18.260Z,110.05
2023-01-03T20:36:18.068Z,115.80
2023-01-03T20:39:30.744Z,117.80
2023-01-03T20:42:24.991Z,115.88
2023-01-03T20:45:12.123Z,120.35
2023-01-03T20:47:59.323Z,126.03
2023-01-03T20:50:45.283Z,129.35
2023-01-03T20:53:30.829Z,121.00
2023-01-03T20:56:16.555Z,120.30
2023-01-03T20:59:02.100Z,121.60
2023-01-03T21:01:51.253Z,119.43
2023-01-03T21:04:38.720Z,120.00
2023-01-03T21:07:50.423Z,126.00
2023-01-03T21:10:43.745Z,128.27
2023-01-03T21:13:29.493Z,117.57
2023-01-03T21:16:18.066Z,111.30
2023-01-03T21:19:22.869Z,113.00
2023-01-03T21:22:17.947Z,119.10
2023-01-03T21:25:03.399Z,124.05
2023-01-03T21:27:49.633Z,119.65
2023-01-03T21:30:35.179Z,117.22
2023-01-03T21:33:21.771Z,123.38
2023-01-03T21:36:14.179Z,122.15
2023-01-03T21:39:05.037Z,111.22
2023-01-03T21:42:09.456Z,114.20
2023-01-03T21:44:54.770Z,115.75
2023-01-03T21:47:40.773Z,126.70
2023-01-03T21:50:27.232Z,118.63
2023-01-03T21:53:22.468Z,121.93
2023-01-03T21:56:09.713Z,130.77
2023-01-03T21:58:54.980Z,134.68
2023-01-03T22:01:59.284Z,135.70
2023-01-03T22:04:45.872Z,126.20
2023-01-03T22:07:31.609Z,133.27
2023-01-03T22:10:18.736Z,132.77
2023-01-03T22:13:07.726Z,133.43
2023-01-03T22:15:53.546Z,141.35
2023-01-03T22:18:39.015Z,136.70
2023-01-03T22:21:24.583Z,131.18
2023-01-03T22:24:10.138Z,130.30
2023-01-03T22:26:55.898Z,136.02
2023-01-03T22:29:41.458Z,136.82
2023-01-03T22:32:28.664Z,131.90
2023-01-03T22:35:17.740Z,140.88
2023-01-03T22:38:03.124Z,132.30
2023-01-03T22:40:48.719Z,127.30
2023-01-03T22:43:34.399Z,142.60
2023-01-03T22:46:21.181Z,136.15
2023-01-03T22:49:07.027Z,150.52
2023-01-03T22:51:52.645Z,144.88
2023-01-03T22:54:39.255Z,143.13
2023-01-03T22:57:24.778Z,135.10
2023-01-03T23:00:11.186Z,142.15
2023-01-03T23:02:56.709Z,144.77
2023-01-03T23:05:42.334Z,140.68
2023-01-03T23:08:28.290Z,146.43
2023-01-03T23:11:37.497Z,126.05
2023-01-03T23:14:24.028Z,123.93
2023-01-03T23:17:28.140Z,135.57
2023-01-03T23:20:14.058Z,146.15
2023-01-03T23:23:04.308Z,129.80
2023-01-03T23:25:50.025Z,133.60
2023-01-03T23:28:35.870Z,140.90
2023-01-03T23:31:21.445Z,130.88
2023-01-03T23:34:08.523Z,123.40
2023-01-03T23:36:54.190Z,128.00
2023-01-03T23:39:40.092Z,142.35
2023-01-03T23:42:25.808Z,118.95
2023-01-03T23:45:11.850Z,124.63
2023-01-03T23:47:57.417Z,119.88
2023-01-03T23:50:42.965Z,113.05
2023-01-03T23:53:28.256Z,119.70
2023-01-03T23:56:19.386Z,107.75
2023-01-03T23:59:05.602Z,120.75
